createdAt,value
2024-01-12T00:01:16.358Z,101129.82
2024-01-12T00:06:25.563Z,101134.33
2024-01-12T00:11:28.201Z,101128.53
2024-01-12T00:16:30.853Z,101126.41
2024-01-12T00:21:33.358Z,101131.31
2024-01-12T00:26:36.037Z,101142.99
2024-01-12T00:31:38.602Z,101151.31
2024-01-12T00:36:41.170Z,101151.01
2024-01-12T00:41:44.022Z,101154.88
2024-01-12T00:46:51.700Z,101165.84
2024-01-12T00:51:54.292Z,101180.03
2024-01-12T00:56:57.041Z,101175.70
2024-01-12T01:01:59.854Z,101177.43
2024-01-12T01:07:02.570Z,101178.45
2024-01-12T01:12:06.451Z,101177.79
2024-01-12T01:17:08.984Z,101176.96
2024-01-12T01:22:11.582Z,101172.06
2024-01-12T01:27:14.169Z,101166.63
2024-01-12T01:32:16.822Z,101162.14
2024-01-12T01:37:19.439Z,101165.61
2024-01-12T01:42:21.942Z,101163.45
2024-01-12T01:47:26.706Z,101159.54
2024-01-12T01:52:29.554Z,101165.49
2024-01-12T01:57:33.833Z,101173.19
2024-01-12T02:02:36.620Z,101169.64
2024-01-12T02:07:39.492Z,101170.76
2024-01-12T02:12:42.177Z,101166.60
2024-01-12T02:17:44.878Z,101166.11
2024-01-12T02:22:47.500Z,101169.45
2024-01-12T02:27:50.011Z,101161.55
2024-01-12T02:32:52.556Z,101162.19
2024-01-12T02:37:55.101Z,101158.10
2024-01-12T02:42:57.576Z,101157.76
2024-01-12T02:48:00.182Z,101153.95
2024-01-12T02:53:02.820Z,101143.67
2024-01-12T02:58:05.328Z,101145.80
2024-01-12T03:03:08.050Z,101137.35
2024-01-12T03:08:11.816Z,101129.14
2024-01-12T03:13:14.363Z,101129.52
2024-01-12T03:18:16.986Z,101124.02
2024-01-12T03:23:19.594Z,101113.70
2024-01-12T03:28:22.105Z,101105.48
2024-01-12T03:33:24.861Z,101097.06
2024-01-12T03:38:27.500Z,101097.53
2024-01-12T03:43:30.125Z,101093.88
2024-01-12T03:48:33.514Z,101084.16
2024-01-12T03:53:36.665Z,101085.36
2024-01-12T03:58:39.774Z,101086.35
2024-01-12T04:03:42.660Z,101081.65
2024-01-12T04:08:45.278Z,101077.31
2024-01-12T04:13:47.851Z,101071.00
2024-01-12T04:18:50.533Z,101070.46
2024-01-12T04:23:53.160Z,101075.43
2024-01-12T04:28:55.851Z,101079.46
2024-01-12T04:33:58.623Z,101081.20
2024-01-12T04:39:01.291Z,101084.89
2024-01-12T04:44:03.974Z,101078.27
2024-01-12T04:49:06.839Z,101069.73
2024-01-12T04:54:09.582Z,101059.02
2024-01-12T04:59:12.295Z,101055.59
2024-01-12T05:04:15.023Z,101047.41
2024-01-12T05:09:18.115Z,101036.48
2024-01-12T05:14:21.377Z,101037.07
2024-01-12T05:19:24.009Z,101035.00
2024-01-12T05:24:26.638Z,101026.98
2024-01-12T05:29:29.152Z,101020.30
2024-01-12T05:34:31.747Z,101024.17
2024-01-12T05:39:34.249Z,101022.16
2024-01-12T05:44:36.817Z,101016.56
2024-01-12T05:49:39.577Z,101017.26
2024-01-12T05:54:42.209Z,101017.59
2024-01-12T05:59:44.746Z,101012.48
2024-01-12T06:04:47.299Z,101005.83
2024-01-12T06:09:49.812Z,101011.23
2024-01-12T06:14:54.056Z,101020.07
2024-01-12T06:19:56.606Z,101008.88
2024-01-12T06:24:59.172Z,101001.52
2024-01-12T06:30:01.950Z,100999.58
2024-01-12T06:35:05.732Z,101007.84
2024-01-12T06:40:09.251Z,101009.80
2024-01-12T06:45:12.456Z,100998.33
2024-01-12T06:50:15.252Z,100990.55
2024-01-12T06:55:17.904Z,100986.50
2024-01-12T07:00:20.754Z,100979.39
2024-01-12T07:05:23.415Z,100976.47
2024-01-12T07:10:26.056Z,100977.02
2024-01-12T07:15:28.521Z,100979.34
2024-01-12T07:20:31.086Z,100966.27
2024-01-12T07:25:35.711Z,100945.87
2024-01-12T07:30:38.407Z,100942.28
2024-01-12T07:35:41.164Z,100946.98
2024-01-12T07:40:43.708Z,100944.89
2024-01-12T07:45:46.459Z,100934.48
2024-01-12T07:50:49.052Z,100931.85
2024-01-12T07:55:53.351Z,100924.84
2024-01-12T08:00:56.004Z,100916.39
2024-01-12T08:05:58.698Z,100902.00
2024-01-12T08:11:01.411Z,100895.38
2024-01-12T08:16:04.121Z,100897.20
2024-01-12T08:21:06.764Z,100890.45
2024-01-12T08:26:09.361Z,100890.89
2024-01-12T08:31:12.724Z,100892.10
2024-01-12T08:36:15.343Z,100895.40
2024-01-12T08:41:18.229Z,100894.11
2024-01-12T08:46:21.575Z,100892.68
2024-01-12T08:51:24.913Z,100889.04
2024-01-12T08:56:28.046Z,100879.48
2024-01-12T09:01:30.792Z,100870.49
2024-01-12T09:06:33.583Z,100849.15
2024-01-12T09:11:36.836Z,100833.19
2024-01-12T09:16:39.969Z,100816.98
2024-01-12T09:21:43.226Z,100799.31
2024-01-12T09:26:45.904Z,100794.84
2024-01-12T09:31:48.676Z,100793.77
2024-01-12T09:36:51.362Z,100773.25
2024-01-12T09:42:03.531Z,100760.86
2024-01-12T09:47:06.365Z,100748.63
2024-01-12T09:52:09.137Z,100741.91
2024-01-12T09:57:16.039Z,100731.37
2024-01-12T10:02:19.740Z,100714.25
2024-01-12T10:07:22.486Z,100700.69
2024-01-12T10:12:25.244Z,100695.58
2024-01-12T10:17:28.426Z,100684.16
2024-01-12T10:22:31.851Z,100671.86
2024-01-12T10:27:34.435Z,100654.73
2024-01-12T10:32:37.064Z,100639.13
2024-01-12T10:37:40.801Z,100642.69
2024-01-12T10:42:49.794Z,100643.51
2024-01-12T10:48:11.145Z,100628.23
2024-01-12T10:53:37.887Z,100613.08
2024-01-12T10:58:45.909Z,100600.95
2024-01-12T11:03:49.677Z,100589.36
2024-01-12T11:08:55.484Z,100578.21
2024-01-12T11:13:59.538Z,100574.90
2024-01-12T11:19:02.476Z,100560.62
2024-01-12T11:24:05.870Z,100555.42
2024-01-12T11:29:15.246Z,100544.25
2024-01-12T11:34:19.716Z,100525.21
2024-01-12T11:39:23.855Z,100507.78
2024-01-12T11:44:26.912Z,100500.40
2024-01-12T11:49:31.185Z,100485.42
2024-01-12T11:54:34.391Z,100476.95
2024-01-12T11:59:38.584Z,100460.17
2024-01-12T12:04:41.240Z,100441.40
2024-01-12T12:09:46.801Z,100443.51
2024-01-12T12:15:05.922Z,100426.73
2024-01-12T12:20:12.497Z,100415.13
2024-01-12T12:25:16.777Z,100413.46
2024-01-12T12:30:19.585Z,100410.00
2024-01-12T12:35:25.223Z,100406.98
2024-01-12T12:40:27.951Z,100405.44
2024-01-12T12:45:31.067Z,100394.63
2024-01-12T12:50:33.751Z,100388.97
2024-01-12T12:55:36.317Z,100381.40
2024-01-12T13:00:39.055Z,100365.61
2024-01-12T13:05:41.971Z,100350.05
2024-01-12T13:10:44.684Z,100338.20
2024-01-12T13:15:47.216Z,100335.78
2024-01-12T13:20:50.033Z,100335.42
2024-01-12T13:25:54.885Z,100332.55
2024-01-12T13:31:00.774Z,100335.23
2024-01-12T13:36:03.625Z,100336.15
2024-01-12T13:41:07.370Z,100330.77
2024-01-12T13:46:11.017Z,100327.45
2024-01-12T13:51:13.649Z,100325.56
2024-01-12T13:56:16.672Z,100322.46
2024-01-12T14:01:19.267Z,100315.99
2024-01-12T14:06:22.448Z,100302.42
2024-01-12T14:11:25.237Z,100289.55
2024-01-12T14:16:28.237Z,100277.11
2024-01-12T14:21:32.210Z,100272.64
2024-01-12T14:26:34.948Z,100265.73
2024-01-12T14:31:43.718Z,100262.66
2024-01-12T14:36:46.420Z,100256.99
2024-01-12T14:41:55.842Z,100256.52
2024-01-12T14:46:59.940Z,100248.19
2024-01-12T14:52:02.818Z,100236.74
2024-01-12T14:57:05.588Z,100241.08
2024-01-12T15:02:09.612Z,100234.16
2024-01-12T15:07:12.379Z,100225.02
2024-01-12T15:12:15.065Z,100221.73
2024-01-12T15:17:18.437Z,100221.79
2024-01-12T15:22:21.905Z,100215.11
2024-01-12T15:27:24.662Z,100209.41
2024-01-12T15:32:27.473Z,100211.74
2024-01-12T15:37:30.645Z,100202.79
2024-01-12T15:42:38.975Z,100194.75
2024-01-12T15:47:47.845Z,100188.15
2024-01-12T15:58:40.145Z,100184.51
2024-01-12T16:03:42.977Z,100186.94
2024-01-12T16:19:11.862Z,100177.91
2024-01-12T16:24:39.960Z,100176.33
2024-01-12T16:29:47.305Z,100171.94
2024-01-12T16:35:10.908Z,100167.30
2024-01-12T16:40:14.129Z,100160.77
2024-01-12T16:45:16.979Z,100154.41
2024-01-12T16:50:20.377Z,100142.95
2024-01-12T16:55:24.692Z,100136.25
2024-01-12T17:00:28.677Z,100125.12
2024-01-12T17:05:31.479Z,100121.88
2024-01-12T17:10:35.684Z,100113.50
2024-01-12T17:15:38.935Z,100111.15
2024-01-12T17:20:42.555Z,100114.25
2024-01-12T17:25:45.463Z,100107.45
2024-01-12T17:30:48.803Z,100121.57
2024-01-12T17:35:53.794Z,100116.30
2024-01-12T17:40:57.169Z,100104.46
2024-01-12T17:46:01.225Z,100108.45
2024-01-12T17:51:05.540Z,100105.05
2024-01-12T17:56:08.566Z,100096.14
2024-01-12T18:01:25.600Z,100091.13
2024-01-12T18:06:28.489Z,100093.52
2024-01-12T18:11:33.281Z,100087.53
2024-01-12T18:16:36.454Z,100070.91
2024-01-12T18:21:39.106Z,100051.02
2024-01-12T18:26:41.726Z,100044.04
2024-01-12T18:31:46.248Z,100048.23
2024-01-12T18:36:48.981Z,100056.88
2024-01-12T18:41:51.909Z,100056.26
2024-01-12T18:46:54.638Z,100061.67
2024-01-12T18:51:59.676Z,100053.65
2024-01-12T18:57:02.327Z,100054.86
2024-01-12T19:02:05.958Z,100053.92
2024-01-12T19:07:11.241Z,100052.50
2024-01-12T19:12:13.862Z,100056.48
2024-01-12T19:17:16.924Z,100048.31
2024-01-12T19:22:22.333Z,100038.42
2024-01-12T19:27:25.053Z,100052.83
2024-01-12T19:32:28.396Z,100043.39
2024-01-12T19:37:31.975Z,100043.36
2024-01-12T19:42:35.073Z,100034.29
2024-01-12T19:47:39.256Z,100033.71
2024-01-12T19:52:42.113Z,100030.54
2024-01-12T19:57:44.916Z,100020.34
2024-01-12T20:02:49.065Z,100026.21
2024-01-12T20:07:51.873Z,100024.83
2024-01-12T20:12:55.013Z,100028.36
2024-01-12T20:17:57.711Z,100025.62
2024-01-12T20:23:00.442Z,100027.36
2024-01-12T20:28:08.003Z,100024.77
2024-01-12T20:33:12.021Z,100022.08
2024-01-12T20:38:15.243Z,100025.33
2024-01-12T20:43:17.874Z,100021.86
2024-01-12T20:48:22.456Z,100021.00
2024-01-12T20:53:26.044Z,100019.13
2024-01-12T20:58:30.028Z,100019.22
2024-01-12T21:03:34.666Z,100008.91
2024-01-12T21:08:37.987Z,100017.80
2024-01-12T21:13:40.954Z,100018.06
2024-01-12T21:18:43.895Z,100019.27
2024-01-12T21:23:47.854Z,100026.25
2024-01-12T21:28:52.086Z,100019.55
2024-01-12T21:33:54.749Z,100017.30
2024-01-12T21:38:58.348Z,100013.28
2024-01-12T21:44:03.659Z,100017.05
2024-01-12T21:49:07.148Z,100006.21
2024-01-12T21:54:11.247Z,100005.23
2024-01-12T21:59:14.890Z,99995.72
2024-01-12T22:04:18.519Z,99986.58
2024-01-12T22:09:21.230Z,99987.01
2024-01-12T22:14:24.851Z,99990.27
2024-01-12T22:19:27.751Z,99983.30
2024-01-12T22:24:34.694Z,99988.16
2024-01-12T22:29:38.406Z,99985.07
2024-01-12T22:34:41.182Z,99985.64
2024-01-12T22:39:44.915Z,99992.38
2024-01-12T22:44:48.847Z,99987.79
2024-01-12T22:50:08.218Z,99982.73
2024-01-12T22:55:10.986Z,99981.97
2024-01-12T23:00:30.062Z,99974.27
2024-01-12T23:05:34.086Z,99974.57
2024-01-12T23:10:39.599Z,99977.31
2024-01-12T23:15:43.159Z,99976.77
2024-01-12T23:20:45.746Z,99973.08
2024-01-12T23:25:48.465Z,99970.73
2024-01-12T23:30:51.157Z,99982.19
2024-01-12T23:35:54.720Z,99979.23
2024-01-12T23:40:57.468Z,99974.17
2024-01-12T23:46:00.357Z,99969.14
2024-01-12T23:51:03.584Z,99971.19
2024-01-12T23:56:07.200Z,99971.60
